Flight Track Log - Related Links

Times and Time Zones

All times are in EDT time to prevent confusion due to time zone crossing. See the N246AE flight status page for this flight to view local times or setup timezone preferences in your user account.

Time Position Orientation Groundspeed Altitude Reporting Facility
EDT Latitude Longitude Course Direction KTS MPH feet Rate Location/Type
Sat 03:09:00 PM 36.6737 -82.5202 338° Northwest  Level FlightAware Approximate
Sat 03:10:00 PM 36.7161 -82.5414 338° Northwest  Level FlightAware Approximate
Sat 03:11:00 PM 36.7585 -82.5625 338° Northwest  Level FlightAware Approximate
Sat 03:12:00 PM 36.8009 -82.5837 338° Northwest  Level FlightAware Approximate
Sat 03:13:00 PM 36.8433 -82.6050 338° Northwest  Level FlightAware Approximate
Sat 03:13:28 PM 36.6097 -82.6175 334° Northwest 130 150 8,000  Level Indianapolis Center
Sat 03:14:00 PM 36.8852 -82.6277 334° Northwest  Level FlightAware Approximate
Sat 03:14:30 PM 36.6456 -82.6364 337° Northwest 138 159 8,100  Level Indianapolis Center
Sat 03:15:00 PM 36.9264 -82.6524 334° Northwest  Level FlightAware Approximate
Sat 03:15:32 PM 36.6875 -82.6572 338° Northwest 155 178 8,100  Level Indianapolis Center
Sat 03:16:00 PM 36.9676 -82.6770 334° Northwest  Level FlightAware Approximate
Sat 03:16:34 PM 36.7300 -82.6792 338° Northwest 163 188 8,000  Level Indianapolis Center
Sat 03:17:00 PM 37.0088 -82.7017 334° Northwest  Level FlightAware Approximate
Sat 03:17:36 PM 36.7725 -82.7014 337° Northwest 165 190 8,000  Level Indianapolis Center
Sat 03:18:00 PM 37.0500 -82.7265 334° Northwest  Level FlightAware Approximate
Sat 03:18:38 PM 36.8225 -82.7269 338° Northwest 166 191 8,000  Level Indianapolis Center
Sat 03:19:40 PM 36.8653 -82.7494 337° Northwest 166 191 8,000  Level Indianapolis Center
Sat 03:20:42 PM 36.9083 -82.7725 337° Northwest 169 194 8,000  Level Indianapolis Center
Sat 03:21:44 PM 36.9506 -82.7939 338° Northwest 167 192 8,000 49 Level Indianapolis Center
Sat 03:22:45 PM 37.0000 -82.8206 337° Northwest 167 192 8,100 49 Climbing Indianapolis Center
Sat 03:23:47 PM 37.0433 -82.8428 338° Northwest 168 193 8,100  Level Indianapolis Center
Sat 03:24:49 PM 37.0867 -82.8653 338° Northwest 168 193 8,100 -48 Level Indianapolis Center
Sat 03:25:51 PM 37.1294 -82.8878 337° Northwest 168 193 8,000 -48 Descending Indianapolis Center
Sat 03:26:53 PM 37.1731 -82.9106 337° Northwest 168 193 8,000 49 Level Indianapolis Center
Sat 03:27:54 PM 37.2233 -82.9369 337° Northwest 168 193 8,100 49 Climbing Indianapolis Center
Sat 03:28:56 PM 37.2656 -82.9594 337° Northwest 166 191 8,100  Level Indianapolis Center
Sat 03:29:58 PM 37.3083 -82.9806 339° North 165 190 8,100  Level Indianapolis Center
Sat 03:31:00 PM 37.3506 -83.0028 337° Northwest 164 189 8,100 -48 Level Indianapolis Center
Sat 03:32:02 PM 37.3925 -83.0244 338° Northwest 164 189 8,000 -49 Descending Indianapolis Center
Sat 03:33:03 PM 37.4350 -83.0475 337° Northwest 165 190 8,000  Level Indianapolis Center
Sat 03:34:05 PM 37.4781 -83.0697 338° Northwest 167 192 8,000 48 Level Indianapolis Center
Sat 03:35:07 PM 37.5272 -83.0964 337° Northwest 164 189 8,100  Climbing Indianapolis Center
Sat 03:36:09 PM 37.5689 -83.1186 337° Northwest 164 189 8,000  Descending Indianapolis Center
Sat 03:37:11 PM 37.6108 -83.1403 338° Northwest 163 188 8,100  Climbing Indianapolis Center
Sat 03:38:12 PM 37.6536 -83.1625 338° Northwest 164 189 8,000  Descending Indianapolis Center
Sat 03:39:14 PM 37.6956 -83.1847 337° Northwest 164 189 8,100  Climbing Indianapolis Center
Sat 03:40:16 PM 37.7378 -83.2092 335° Northwest 165 190 8,000  Descending Indianapolis Center
Sat 03:41:18 PM 37.7869 -83.2353 337° Northwest 165 190 8,100 49 Climbing Indianapolis Center
Sat 03:42:19 PM 37.8300 -83.2561 339° North 165 190 8,100  Level Indianapolis Center
Sat 03:43:21 PM 37.8711 -83.2803 335° Northwest 163 188 8,100  Level Indianapolis Center
Sat 03:44:23 PM 37.9136 -83.3025 338° Northwest 164 189 8,100  Level Indianapolis Center
Sat 03:45:25 PM 37.9567 -83.3250 338° Northwest 166 191 8,100  Level Indianapolis Center
Sat 03:46:26 PM 37.9989 -83.3489 336° Northwest 166 191 8,100  Level Indianapolis Center
Sat 03:47:28 PM 38.0486 -83.3739 338° Northwest 164 189 8,100  Level Indianapolis Center
Sat 03:48:30 PM 38.0906 -83.3981 336° Northwest 165 190 8,100 -48 Level Indianapolis Center
Sat 03:49:32 PM 38.1333 -83.4203 338° Northwest 165 190 8,000 -49 Descending Indianapolis Center
Sat 03:50:33 PM 38.1753 -83.4433 337° Northwest 163 188 8,000  Level Indianapolis Center
Sat 03:51:35 PM 38.2178 -83.4650 338° Northwest 164 189 8,000  Level Indianapolis Center
Sat 03:52:37 PM 38.2600 -83.4894 336° Northwest 166 191 8,000  Level Indianapolis Center
Sat 03:53:39 PM 38.3025 -83.5114 338° Northwest 166 191 8,000  Level Indianapolis Center
Sat 03:54:40 PM 38.3517 -83.5400 335° Northwest 164 189 8,000  Level Indianapolis Center
Sat 03:55:42 PM 38.3942 -83.5625 337° Northwest 165 190 8,000  Level Indianapolis Center
Sat 03:56:44 PM 38.4353 -83.5839 338° Northwest 161 185 8,000  Level Indianapolis Center
Sat 03:57:46 PM 38.4767 -83.6078 336° Northwest 162 186 8,000  Level Indianapolis Center
Sat 03:58:47 PM 38.5181 -83.6289 338° Northwest 162 186 8,000  Level Indianapolis Center
Sat 03:59:49 PM 38.5597 -83.6533 335° Northwest 164 189 8,000  Level Indianapolis Center
Sat 04:00:51 PM 38.6089 -83.6786 338° Northwest 162 186 8,000  Level Indianapolis Center
Sat 04:01:52 PM 38.6489 -83.7006 337° Northwest 160 184 8,000  Level Indianapolis Center
Sat 04:02:54 PM 38.6900 -83.7256 335° Northwest 161 185 8,000  Level Indianapolis Center
Sat 04:03:56 PM 38.7308 -83.7469 338° Northwest 160 184 8,000  Level Indianapolis Center
Sat 04:04:57 PM 38.7703 -83.7706 335° Northwest 157 181 8,000  Level Indianapolis Center
Sat 04:05:59 PM 38.8094 -83.7892 340° North 152 175 8,000  Level Indianapolis Center
Sat 04:07:00 PM 38.8503 -83.8114 337° Northwest 155 178 8,000  Level Indianapolis Center
Sat 04:08:02 PM 38.8914 -83.8336 337° Northwest 157 181 8,000  Level Indianapolis Center
Sat 04:09:04 PM 38.9325 -83.8581 335° Northwest 160 184 8,000  Level Indianapolis Center
Sat 04:10:05 PM 38.9736 -83.8808 337° Northwest 160 184 8,000  Level Indianapolis Center
Sat 04:11:07 PM 39.0219 -83.9069 337° Northwest 160 184 8,000 -176 Level Indianapolis Center
Sat 04:11:47 PM 39.0497 -83.9231 336° Northwest 162 186 7,700 -484 Descending Indianapolis Center
Sat 04:12:09 PM 39.0656 -83.9314 338° Northwest 167 192 7,500 -698 Descending Indianapolis Center
Sat 04:12:30 PM 39.0819 -83.9406 337° Northwest 173 199 7,200 -787 Descending Indianapolis Center
Sat 04:13:10 PM 39.1108 -83.9553 338° Northwest 173 199 6,700 -700 Descending Indianapolis Center
Sat 04:13:30 PM 39.1261 -83.9650 334° Northwest 179 206 6,500 -677 Descending Indianapolis Center
Sat 04:14:12 PM 39.1572 -83.9828 336° Northwest 178 205 6,000 -787 Descending Indianapolis Center
Sat 04:14:31 PM 39.1722 -83.9925 333° Northwest 177 204 5,700 -677 Descending Indianapolis Center
Sat 04:15:14 PM 39.2039 -84.0083 339° North 180 207 5,300 -492 Descending Indianapolis Center
Sat 04:15:32 PM 39.2203 -84.0200 331° Northwest 177 204 5,200 -295 Descending Indianapolis Center
Sat 04:16:15 PM 39.2408 -84.0439 318° Northwest 171 197 5,000 -197 Descending Indianapolis Center
Sat 04:16:33 PM 39.2531 -84.0594 315° West 156 180 5,000  Level Indianapolis Center
Sat 04:17:16 PM 39.2731 -84.0783 324° Northwest 157 181 5,000  Level Indianapolis Center
Sat 04:17:34 PM 39.2839 -84.0931 314° West 148 170 5,000 97 Level Indianapolis Center
Sat 04:18:18 PM 39.3050 -84.1133 323° Northwest 152 175 5,100  Climbing Indianapolis Center
Sat 04:18:35 PM 39.3167 -84.1269 318° Northwest 147 169 5,000 -97 Descending Indianapolis Center
Sat 04:19:20 PM 39.3381 -84.1472 324° Northwest 150 173 5,000  Level Indianapolis Center
Sat 04:19:42 PM 39.3533 -84.1669 315° West 154 177 5,000  Level Indianapolis Center
Sat 04:20:21 PM 39.3714 -84.1831 325° Northwest 152 175 5,000 98 Level Indianapolis Center
Sat 04:20:43 PM 39.3883 -84.2011 321° Northwest 156 180 5,100  Climbing Indianapolis Center
Sat 04:21:23 PM 39.4128 -84.1997 North 164 189 5,000  Descending Indianapolis Center
Sat 04:21:49 PM 39.4367 -84.2019 356° North 160 184 5,100 -98 Climbing Indianapolis Center
Sat 04:22:24 PM 39.4564 -84.2019 360° North 158 182 4,900 -545 Descending Indianapolis Center
Sat 04:22:44 PM 39.4761 -84.2072 348° North 155 178 4,600 -774 Descending Indianapolis Center
Sat 04:23:26 PM 39.5089 -84.2092 357° North 158 182 4,100 -714 Descending Indianapolis Center
Sat 04:25:00 PM 39.5799 -84.2150 339° North  Level FlightAware Approximate
Sat 04:32:00 PM 39.5833 -84.2167 339° North  Level FlightAware Approximate
Sat 04:33:00 PM 39.5890 -84.2249 339° North  Level Estimated
Sat 04:34:00 PM 39.5890 -84.2249 339° North  Level Estimated

Login

Don't have an account? Register now (free) for customized features, flight alerts, and more!